sensor_id;sensor_type;location;lat;lon;timestamp;P1;durP1;ratioP1;P2;durP2;ratioP2
16029;SDS011;34770;49.272;11.070;2023-04-10T00:01:17;15.97;;;11.47;;
16029;SDS011;34770;49.272;11.070;2023-04-10T00:03:43;13.13;;;9.87;;
16029;SDS011;34770;49.272;11.070;2023-04-10T00:06:08;12.97;;;10.57;;
16029;SDS011;34770;49.272;11.070;2023-04-10T00:08:34;13.50;;;11.13;;
16029;SDS011;34770;49.272;11.070;2023-04-10T00:10:59;16.33;;;13.13;;
16029;SDS011;34770;49.272;11.070;2023-04-10T00:13:25;14.30;;;10.43;;
16029;SDS011;34770;49.272;11.070;2023-04-10T00:15:50;14.27;;;11.37;;
16029;SDS011;34770;49.272;11.070;2023-04-10T00:18:16;11.90;;;10.53;;
16029;SDS011;34770;49.272;11.070;2023-04-10T00:20:41;15.40;;;10.67;;
16029;SDS011;34770;49.272;11.070;2023-04-10T00:23:07;15.63;;;11.30;;
16029;SDS011;34770;49.272;11.070;2023-04-10T00:25:33;13.43;;;10.10;;
16029;SDS011;34770;49.272;11.070;2023-04-10T00:27:58;15.57;;;11.00;;
16029;SDS011;34770;49.272;11.070;2023-04-10T00:30:24;15.50;;;11.70;;
16029;SDS011;34770;49.272;11.070;2023-04-10T00:32:49;13.93;;;11.63;;
16029;SDS011;34770;49.272;11.070;2023-04-10T00:35:15;15.93;;;11.77;;
16029;SDS011;34770;49.272;11.070;2023-04-10T00:37:40;12.30;;;9.63;;
16029;SDS011;34770;49.272;11.070;2023-04-10T00:40:06;13.83;;;10.73;;
16029;SDS011;34770;49.272;11.070;2023-04-10T00:42:32;16.37;;;10.40;;
16029;SDS011;34770;49.272;11.070;2023-04-10T00:44:58;15.70;;;10.80;;
16029;SDS011;34770;49.272;11.070;2023-04-10T00:47:24;14.20;;;11.80;;
16029;SDS011;34770;49.272;11.070;2023-04-10T00:49:50;14.13;;;10.77;;
16029;SDS011;34770;49.272;11.070;2023-04-10T00:52:16;14.77;;;11.60;;
16029;SDS011;34770;49.272;11.070;2023-04-10T00:54:41;13.53;;;10.57;;
16029;SDS011;34770;49.272;11.070;2023-04-10T00:57:07;13.60;;;10.70;;
16029;SDS011;34770;49.272;11.070;2023-04-10T00:59:33;15.83;;;12.50;;
16029;SDS011;34770;49.272;11.070;2023-04-10T01:01:59;14.50;;;11.60;;
16029;SDS011;34770;49.272;11.070;2023-04-10T01:04:24;14.53;;;10.93;;
16029;SDS011;34770;49.272;11.070;2023-04-10T01:07:03;15.13;;;11.00;;
16029;SDS011;34770;49.272;11.070;2023-04-10T01:14:33;16.50;;;12.27;;
16029;SDS011;34770;49.272;11.070;2023-04-10T01:17:20;13.10;;;10.73;;
16029;SDS011;34770;49.272;11.070;2023-04-10T01:33:50;15.03;;;11.13;;
16029;SDS011;34770;49.272;11.070;2023-04-10T01:36:26;12.80;;;10.10;;
16029;SDS011;34770;49.272;11.070;2023-04-10T01:38:58;14.07;;;10.27;;
16029;SDS011;34770;49.272;11.070;2023-04-10T01:41:24;13.80;;;11.23;;
16029;SDS011;34770;49.272;11.070;2023-04-10T01:43:51;17.33;;;10.70;;
16029;SDS011;34770;49.272;11.070;2023-04-10T01:46:18;14.27;;;11.10;;
16029;SDS011;34770;49.272;11.070;2023-04-10T01:48:45;14.87;;;11.53;;
16029;SDS011;34770;49.272;11.070;2023-04-10T01:51:12;17.47;;;12.07;;
16029;SDS011;34770;49.272;11.070;2023-04-10T01:53:39;14.07;;;11.03;;
16029;SDS011;34770;49.272;11.070;2023-04-10T01:56:07;15.40;;;11.17;;
16029;SDS011;34770;49.272;11.070;2023-04-10T01:58:36;14.17;;;10.43;;
16029;SDS011;34770;49.272;11.070;2023-04-10T02:01:02;13.77;;;10.53;;
16029;SDS011;34770;49.272;11.070;2023-04-10T02:03:28;16.27;;;10.47;;
16029;SDS011;34770;49.272;11.070;2023-04-10T02:08:56;14.70;;;11.03;;
16029;SDS011;34770;49.272;11.070;2023-04-10T02:11:33;13.63;;;10.97;;
16029;SDS011;34770;49.272;11.070;2023-04-10T02:14:07;13.30;;;10.67;;
16029;SDS011;34770;49.272;11.070;2023-04-10T02:16:35;13.37;;;10.93;;
16029;SDS011;34770;49.272;11.070;2023-04-10T02:19:03;13.47;;;9.93;;
16029;SDS011;34770;49.272;11.070;2023-04-10T02:21:29;13.33;;;10.47;;
16029;SDS011;34770;49.272;11.070;2023-04-10T02:23:57;12.10;;;10.10;;
16029;SDS011;34770;49.272;11.070;2023-04-10T02:26:23;13.63;;;10.57;;
16029;SDS011;34770;49.272;11.070;2023-04-10T02:28:49;14.83;;;11.70;;
16029;SDS011;34770;49.272;11.070;2023-04-10T02:31:14;15.10;;;11.77;;
16029;SDS011;34770;49.272;11.070;2023-04-10T02:33:40;14.70;;;10.67;;
16029;SDS011;34770;49.272;11.070;2023-04-10T02:36:05;15.67;;;9.47;;
16029;SDS011;34770;49.272;11.070;2023-04-10T02:38:31;14.83;;;10.67;;
16029;SDS011;34770;49.272;11.070;2023-04-10T02:40:57;12.13;;;10.70;;
16029;SDS011;34770;49.272;11.070;2023-04-10T02:43:22;13.70;;;10.57;;
16029;SDS011;34770;49.272;11.070;2023-04-10T02:45:47;14.70;;;10.80;;
16029;SDS011;34770;49.272;11.070;2023-04-10T02:48:13;14.60;;;10.23;;
16029;SDS011;34770;49.272;11.070;2023-04-10T02:50:39;13.90;;;10.27;;
16029;SDS011;34770;49.272;11.070;2023-04-10T02:53:09;13.90;;;10.40;;
16029;SDS011;34770;49.272;11.070;2023-04-10T02:55:36;15.07;;;11.77;;
16029;SDS011;34770;49.272;11.070;2023-04-10T02:58:01;13.70;;;10.30;;
16029;SDS011;34770;49.272;11.070;2023-04-10T03:00:27;14.27;;;10.27;;
16029;SDS011;34770;49.272;11.070;2023-04-10T03:02:53;15.03;;;10.80;;
16029;SDS011;34770;49.272;11.070;2023-04-10T03:05:18;13.93;;;10.77;;
16029;SDS011;34770;49.272;11.070;2023-04-10T03:07:44;14.47;;;10.63;;
16029;SDS011;34770;49.272;11.070;2023-04-10T03:10:10;16.20;;;11.17;;
16029;SDS011;34770;49.272;11.070;2023-04-10T03:12:35;11.23;;;9.70;;
16029;SDS011;34770;49.272;11.070;2023-04-10T03:15:01;15.17;;;10.87;;
16029;SDS011;34770;49.272;11.070;2023-04-10T03:17:27;14.70;;;9.97;;
16029;SDS011;34770;49.272;11.070;2023-04-10T03:19:52;11.93;;;9.93;;
16029;SDS011;34770;49.272;11.070;2023-04-10T03:22:18;14.13;;;10.83;;
16029;SDS011;34770;49.272;11.070;2023-04-10T03:24:43;13.97;;;10.07;;
16029;SDS011;34770;49.272;11.070;2023-04-10T03:27:08;13.77;;;10.97;;
16029;SDS011;34770;49.272;11.070;2023-04-10T03:29:34;18.67;;;11.23;;
16029;SDS011;34770;49.272;11.070;2023-04-10T03:31:59;13.30;;;10.23;;
16029;SDS011;34770;49.272;11.070;2023-04-10T03:34:25;12.27;;;8.93;;
16029;SDS011;34770;49.272;11.070;2023-04-10T03:36:50;13.67;;;10.97;;
16029;SDS011;34770;49.272;11.070;2023-04-10T03:39:16;14.40;;;11.07;;
16029;SDS011;34770;49.272;11.070;2023-04-10T03:41:41;13.83;;;9.93;;
16029;SDS011;34770;49.272;11.070;2023-04-10T03:44:07;13.10;;;10.00;;
16029;SDS011;34770;49.272;11.070;2023-04-10T03:46:32;15.47;;;9.73;;
16029;SDS011;34770;49.272;11.070;2023-04-10T03:48:57;12.53;;;9.97;;
16029;SDS011;34770;49.272;11.070;2023-04-10T03:51:23;11.93;;;10.10;;
16029;SDS011;34770;49.272;11.070;2023-04-10T03:53:49;12.77;;;10.17;;
16029;SDS011;34770;49.272;11.070;2023-04-10T03:56:14;11.03;;;9.70;;
16029;SDS011;34770;49.272;11.070;2023-04-10T03:58:40;15.80;;;11.13;;
16029;SDS011;34770;49.272;11.070;2023-04-10T04:01:06;13.17;;;10.47;;
16029;SDS011;34770;49.272;11.070;2023-04-10T04:03:31;13.27;;;10.37;;
16029;SDS011;34770;49.272;11.070;2023-04-10T04:05:57;12.43;;;9.93;;
16029;SDS011;34770;49.272;11.070;2023-04-10T04:08:22;15.40;;;10.67;;
16029;SDS011;34770;49.272;11.070;2023-04-10T04:10:48;15.17;;;10.33;;
16029;SDS011;34770;49.272;11.070;2023-04-10T04:13:13;16.80;;;11.27;;
16029;SDS011;34770;49.272;11.070;2023-04-10T04:15:39;15.43;;;10.70;;
16029;SDS011;34770;49.272;11.070;2023-04-10T04:18:04;14.50;;;10.50;;
16029;SDS011;34770;49.272;11.070;2023-04-10T04:20:30;15.87;;;10.77;;
16029;SDS011;34770;49.272;11.070;2023-04-10T04:22:55;13.37;;;10.30;;
16029;SDS011;34770;49.272;11.070;2023-04-10T04:25:21;14.90;;;10.27;;
16029;SDS011;34770;49.272;11.070;2023-04-10T04:27:46;17.03;;;11.47;;
16029;SDS011;34770;49.272;11.070;2023-04-10T04:30:11;15.10;;;10.93;;
16029;SDS011;34770;49.272;11.070;2023-04-10T04:32:37;17.20;;;11.27;;
16029;SDS011;34770;49.272;11.070;2023-04-10T04:35:02;16.77;;;10.93;;
16029;SDS011;34770;49.272;11.070;2023-04-10T04:37:28;14.13;;;10.40;;
16029;SDS011;34770;49.272;11.070;2023-04-10T04:39:53;14.90;;;10.67;;
16029;SDS011;34770;49.272;11.070;2023-04-10T04:42:18;14.20;;;10.37;;
16029;SDS011;34770;49.272;11.070;2023-04-10T04:44:44;15.47;;;11.13;;
16029;SDS011;34770;49.272;11.070;2023-04-10T04:47:09;17.03;;;11.93;;
16029;SDS011;34770;49.272;11.070;2023-04-10T04:49:35;15.07;;;10.27;;
16029;SDS011;34770;49.272;11.070;2023-04-10T04:52:00;16.30;;;11.13;;
16029;SDS011;34770;49.272;11.070;2023-04-10T04:54:26;15.20;;;10.73;;
16029;SDS011;34770;49.272;11.070;2023-04-10T04:56:52;15.90;;;11.10;;
16029;SDS011;34770;49.272;11.070;2023-04-10T04:59:17;14.00;;;11.40;;
16029;SDS011;34770;49.272;11.070;2023-04-10T05:01:42;17.10;;;10.93;;
16029;SDS011;34770;49.272;11.070;2023-04-10T05:04:08;12.83;;;9.53;;
16029;SDS011;34770;49.272;11.070;2023-04-10T05:06:33;15.23;;;10.40;;
16029;SDS011;34770;49.272;11.070;2023-04-10T05:08:59;14.33;;;10.17;;
16029;SDS011;34770;49.272;11.070;2023-04-10T05:11:25;15.63;;;10.43;;
16029;SDS011;34770;49.272;11.070;2023-04-10T05:13:50;12.73;;;9.83;;
16029;SDS011;34770;49.272;11.070;2023-04-10T05:16:15;17.03;;;10.67;;
16029;SDS011;34770;49.272;11.070;2023-04-10T05:18:41;13.80;;;10.60;;
16029;SDS011;34770;49.272;11.070;2023-04-10T05:21:06;15.30;;;11.03;;
16029;SDS011;34770;49.272;11.070;2023-04-10T05:23:32;14.27;;;10.97;;
16029;SDS011;34770;49.272;11.070;2023-04-10T05:25:57;16.93;;;10.83;;
16029;SDS011;34770;49.272;11.070;2023-04-10T05:28:22;15.40;;;10.93;;
16029;SDS011;34770;49.272;11.070;2023-04-10T05:30:48;12.97;;;10.53;;
16029;SDS011;34770;49.272;11.070;2023-04-10T05:33:13;12.83;;;9.87;;
16029;SDS011;34770;49.272;11.070;2023-04-10T05:35:38;14.77;;;11.83;;
16029;SDS011;34770;49.272;11.070;2023-04-10T05:38:04;14.90;;;10.60;;
16029;SDS011;34770;49.272;11.070;2023-04-10T05:40:29;14.37;;;10.37;;
16029;SDS011;34770;49.272;11.070;2023-04-10T05:42:55;14.07;;;10.00;;
16029;SDS011;34770;49.272;11.070;2023-04-10T05:45:21;15.73;;;10.93;;
16029;SDS011;34770;49.272;11.070;2023-04-10T05:47:47;15.10;;;10.53;;
16029;SDS011;34770;49.272;11.070;2023-04-10T05:50:12;13.37;;;10.00;;
16029;SDS011;34770;49.272;11.070;2023-04-10T05:52:37;11.27;;;9.77;;
16029;SDS011;34770;49.272;11.070;2023-04-10T05:55:03;14.23;;;9.50;;
16029;SDS011;34770;49.272;11.070;2023-04-10T05:57:28;16.17;;;10.30;;
16029;SDS011;34770;49.272;11.070;2023-04-10T05:59:54;12.77;;;9.70;;
16029;SDS011;34770;49.272;11.070;2023-04-10T06:02:20;14.73;;;10.67;;
16029;SDS011;34770;49.272;11.070;2023-04-10T06:04:45;14.27;;;10.90;;
16029;SDS011;34770;49.272;11.070;2023-04-10T06:07:11;15.53;;;11.97;;
16029;SDS011;34770;49.272;11.070;2023-04-10T06:09:36;14.60;;;11.40;;
16029;SDS011;34770;49.272;11.070;2023-04-10T06:12:01;14.47;;;11.50;;
16029;SDS011;34770;49.272;11.070;2023-04-10T06:14:27;14.83;;;11.30;;
16029;SDS011;34770;49.272;11.070;2023-04-10T06:16:52;16.30;;;11.00;;
16029;SDS011;34770;49.272;11.070;2023-04-10T06:19:18;17.10;;;11.93;;
16029;SDS011;34770;49.272;11.070;2023-04-10T06:21:43;16.67;;;11.53;;
16029;SDS011;34770;49.272;11.070;2023-04-10T06:24:08;16.83;;;12.13;;
16029;SDS011;34770;49.272;11.070;2023-04-10T06:26:34;16.23;;;12.43;;
16029;SDS011;34770;49.272;11.070;2023-04-10T06:28:59;15.23;;;12.03;;
16029;SDS011;34770;49.272;11.070;2023-04-10T06:31:25;17.23;;;12.53;;
16029;SDS011;34770;49.272;11.070;2023-04-10T06:33:50;16.03;;;11.90;;
16029;SDS011;34770;49.272;11.070;2023-04-10T06:36:15;18.73;;;12.70;;
16029;SDS011;34770;49.272;11.070;2023-04-10T06:38:41;15.60;;;11.67;;
16029;SDS011;34770;49.272;11.070;2023-04-10T06:41:07;19.20;;;13.67;;
16029;SDS011;34770;49.272;11.070;2023-04-10T06:43:33;18.73;;;12.83;;
16029;SDS011;34770;49.272;11.070;2023-04-10T06:45:59;20.73;;;13.77;;
16029;SDS011;34770;49.272;11.070;2023-04-10T06:48:25;16.60;;;12.17;;
16029;SDS011;34770;49.272;11.070;2023-04-10T06:50:50;18.70;;;12.70;;
16029;SDS011;34770;49.272;11.070;2023-04-10T06:53:16;16.47;;;12.90;;
16029;SDS011;34770;49.272;11.070;2023-04-10T06:55:41;17.07;;;12.50;;
16029;SDS011;34770;49.272;11.070;2023-04-10T06:58:06;17.30;;;12.27;;
16029;SDS011;34770;49.272;11.070;2023-04-10T07:00:32;15.27;;;11.90;;
16029;SDS011;34770;49.272;11.070;2023-04-10T07:02:57;16.80;;;11.70;;
16029;SDS011;34770;49.272;11.070;2023-04-10T07:05:23;15.85;;;11.75;;
16029;SDS011;34770;49.272;11.070;2023-04-10T07:07:48;16.63;;;11.70;;
16029;SDS011;34770;49.272;11.070;2023-04-10T07:10:15;17.75;;;12.27;;
16029;SDS011;34770;49.272;11.070;2023-04-10T07:12:40;14.98;;;10.77;;
16029;SDS011;34770;49.272;11.070;2023-04-10T07:15:06;14.20;;;11.50;;
16029;SDS011;34770;49.272;11.070;2023-04-10T07:17:32;15.30;;;10.77;;
16029;SDS011;34770;49.272;11.070;2023-04-10T07:19:58;14.05;;;11.10;;
16029;SDS011;34770;49.272;11.070;2023-04-10T07:22:23;16.77;;;10.93;;
16029;SDS011;34770;49.272;11.070;2023-04-10T07:24:48;15.07;;;11.35;;
16029;SDS011;34770;49.272;11.070;2023-04-10T07:27:14;13.73;;;10.23;;
16029;SDS011;34770;49.272;11.070;2023-04-10T07:29:41;13.88;;;10.63;;
16029;SDS011;34770;49.272;11.070;2023-04-10T07:32:06;14.02;;;10.60;;
16029;SDS011;34770;49.272;11.070;2023-04-10T07:34:31;13.35;;;11.25;;
16029;SDS011;34770;49.272;11.070;2023-04-10T07:36:57;11.98;;;9.50;;
16029;SDS011;34770;49.272;11.070;2023-04-10T07:39:22;13.93;;;9.82;;
16029;SDS011;34770;49.272;11.070;2023-04-10T07:41:48;11.82;;;9.45;;
16029;SDS011;34770;49.272;11.070;2023-04-10T07:44:13;13.57;;;9.70;;
16029;SDS011;34770;49.272;11.070;2023-04-10T07:46:39;15.05;;;11.05;;
16029;SDS011;34770;49.272;11.070;2023-04-10T07:49:05;11.90;;;9.63;;
16029;SDS011;34770;49.272;11.070;2023-04-10T07:51:31;11.95;;;9.52;;
16029;SDS011;34770;49.272;11.070;2023-04-10T07:53:56;14.25;;;11.10;;
16029;SDS011;34770;49.272;11.070;2023-04-10T07:56:21;13.25;;;9.98;;
16029;SDS011;34770;49.272;11.070;2023-04-10T07:58:47;12.20;;;9.73;;
16029;SDS011;34770;49.272;11.070;2023-04-10T08:01:13;15.23;;;11.25;;
16029;SDS011;34770;49.272;11.070;2023-04-10T08:03:40;14.15;;;10.15;;
16029;SDS011;34770;49.272;11.070;2023-04-10T08:06:07;14.02;;;10.10;;
16029;SDS011;34770;49.272;11.070;2023-04-10T08:08:37;14.98;;;10.18;;
16029;SDS011;34770;49.272;11.070;2023-04-10T08:11:05;15.50;;;9.15;;
16029;SDS011;34770;49.272;11.070;2023-04-10T08:13:55;13.55;;;9.82;;
16029;SDS011;34770;49.272;11.070;2023-04-10T08:16:25;12.38;;;9.35;;
16029;SDS011;34770;49.272;11.070;2023-04-10T08:18:53;12.27;;;10.00;;
16029;SDS011;34770;49.272;11.070;2023-04-10T08:21:22;12.27;;;9.60;;
16029;SDS011;34770;49.272;11.070;2023-04-10T08:23:58;11.00;;;8.90;;
16029;SDS011;34770;49.272;11.070;2023-04-10T08:26:25;12.35;;;8.70;;
16029;SDS011;34770;49.272;11.070;2023-04-10T08:28:52;10.77;;;9.10;;
16029;SDS011;34770;49.272;11.070;2023-04-10T08:31:20;9.85;;;8.18;;
16029;SDS011;34770;49.272;11.070;2023-04-10T08:33:46;9.65;;;8.20;;
16029;SDS011;34770;49.272;11.070;2023-04-10T08:36:12;9.15;;;7.28;;
16029;SDS011;34770;49.272;11.070;2023-04-10T08:38:42;8.80;;;7.43;;
16029;SDS011;34770;49.272;11.070;2023-04-10T08:41:11;8.98;;;7.45;;
16029;SDS011;34770;49.272;11.070;2023-04-10T08:43:38;7.22;;;5.60;;
16029;SDS011;34770;49.272;11.070;2023-04-10T08:46:03;8.85;;;7.63;;
16029;SDS011;34770;49.272;11.070;2023-04-10T08:48:35;8.25;;;7.38;;
16029;SDS011;34770;49.272;11.070;2023-04-10T08:51:03;8.60;;;7.13;;
16029;SDS011;34770;49.272;11.070;2023-04-10T08:53:29;9.52;;;7.90;;
16029;SDS011;34770;49.272;11.070;2023-04-10T08:55:58;8.00;;;7.20;;
16029;SDS011;34770;49.272;11.070;2023-04-10T08:58:27;8.32;;;7.25;;
16029;SDS011;34770;49.272;11.070;2023-04-10T09:00:53;7.55;;;6.75;;
16029;SDS011;34770;49.272;11.070;2023-04-10T09:03:18;9.25;;;5.88;;
16029;SDS011;34770;49.272;11.070;2023-04-10T09:05:44;7.82;;;6.63;;
16029;SDS011;34770;49.272;11.070;2023-04-10T09:08:09;7.75;;;6.43;;
16029;SDS011;34770;49.272;11.070;2023-04-10T09:10:36;7.43;;;6.40;;
16029;SDS011;34770;49.272;11.070;2023-04-10T09:13:01;7.30;;;5.80;;
16029;SDS011;34770;49.272;11.070;2023-04-10T09:15:26;6.57;;;5.82;;
16029;SDS011;34770;49.272;11.070;2023-04-10T09:17:58;7.80;;;6.72;;
16029;SDS011;34770;49.272;11.070;2023-04-10T09:20:27;7.28;;;6.45;;
16029;SDS011;34770;49.272;11.070;2023-04-10T09:22:54;10.25;;;7.78;;
16029;SDS011;34770;49.272;11.070;2023-04-10T09:28:05;8.82;;;6.05;;
16029;SDS011;34770;49.272;11.070;2023-04-10T09:30:39;7.43;;;5.45;;
16029;SDS011;34770;49.272;11.070;2023-04-10T09:33:21;5.65;;;5.07;;
16029;SDS011;34770;49.272;11.070;2023-04-10T09:35:48;7.03;;;5.78;;
16029;SDS011;34770;49.272;11.070;2023-04-10T09:38:16;6.63;;;5.93;;
16029;SDS011;34770;49.272;11.070;2023-04-10T09:40:43;7.13;;;5.75;;
16029;SDS011;34770;49.272;11.070;2023-04-10T09:43:16;7.32;;;5.72;;
16029;SDS011;34770;49.272;11.070;2023-04-10T09:45:45;6.57;;;5.78;;
16029;SDS011;34770;49.272;11.070;2023-04-10T09:48:12;6.40;;;5.72;;
16029;SDS011;34770;49.272;11.070;2023-04-10T09:50:37;8.88;;;7.10;;
16029;SDS011;34770;49.272;11.070;2023-04-10T09:53:08;6.90;;;5.82;;
16029;SDS011;34770;49.272;11.070;2023-04-10T09:55:36;6.63;;;5.85;;
16029;SDS011;34770;49.272;11.070;2023-04-10T09:58:02;6.38;;;5.20;;
16029;SDS011;34770;49.272;11.070;2023-04-10T10:00:29;5.75;;;5.13;;
16029;SDS011;34770;49.272;11.070;2023-04-10T10:05:22;6.70;;;5.78;;
16029;SDS011;34770;49.272;11.070;2023-04-10T10:07:54;6.65;;;5.90;;
16029;SDS011;34770;49.272;11.070;2023-04-10T10:10:20;6.95;;;6.25;;
16029;SDS011;34770;49.272;11.070;2023-04-10T10:20:58;6.88;;;5.68;;
16029;SDS011;34770;49.272;11.070;2023-04-10T10:23:25;6.18;;;5.25;;
16029;SDS011;34770;49.272;11.070;2023-04-10T10:25:52;5.72;;;5.22;;
16029;SDS011;34770;49.272;11.070;2023-04-10T10:28:19;6.28;;;5.25;;
16029;SDS011;34770;49.272;11.070;2023-04-10T10:30:46;6.55;;;5.40;;
16029;SDS011;34770;49.272;11.070;2023-04-10T10:33:11;5.43;;;4.93;;
16029;SDS011;34770;49.272;11.070;2023-04-10T10:35:38;4.93;;;4.53;;
16029;SDS011;34770;49.272;11.070;2023-04-10T10:38:05;4.65;;;4.25;;
16029;SDS011;34770;49.272;11.070;2023-04-10T10:40:32;4.90;;;4.40;;
16029;SDS011;34770;49.272;11.070;2023-04-10T10:43:12;5.97;;;5.25;;
16029;SDS011;34770;49.272;11.070;2023-04-10T10:45:53;4.35;;;3.95;;
16029;SDS011;34770;49.272;11.070;2023-04-10T10:48:26;5.95;;;5.15;;
16029;SDS011;34770;49.272;11.070;2023-04-10T10:50:55;6.13;;;5.05;;
16029;SDS011;34770;49.272;11.070;2023-04-10T10:53:33;5.55;;;4.97;;
16029;SDS011;34770;49.272;11.070;2023-04-10T10:58:46;5.72;;;5.10;;
16029;SDS011;34770;49.272;11.070;2023-04-10T11:01:16;4.80;;;4.13;;
16029;SDS011;34770;49.272;11.070;2023-04-10T11:03:43;4.40;;;4.00;;
16029;SDS011;34770;49.272;11.070;2023-04-10T11:06:10;4.97;;;4.47;;
16029;SDS011;34770;49.272;11.070;2023-04-10T11:08:44;6.05;;;4.60;;
16029;SDS011;34770;49.272;11.070;2023-04-10T11:11:24;4.97;;;4.43;;
16029;SDS011;34770;49.272;11.070;2023-04-10T11:16:16;5.10;;;4.55;;
16029;SDS011;34770;49.272;11.070;2023-04-10T11:21:09;4.38;;;3.40;;
16029;SDS011;34770;49.272;11.070;2023-04-10T11:23:37;4.22;;;3.75;;
16029;SDS011;34770;49.272;11.070;2023-04-10T11:26:03;6.03;;;5.07;;
16029;SDS011;34770;49.272;11.070;2023-04-10T11:28:39;5.43;;;4.40;;
16029;SDS011;34770;49.272;11.070;2023-04-10T11:31:20;4.88;;;3.97;;
16029;SDS011;34770;49.272;11.070;2023-04-10T11:34:05;4.65;;;4.20;;
16029;SDS011;34770;49.272;11.070;2023-04-10T11:36:41;5.15;;;4.47;;
16029;SDS011;34770;49.272;11.070;2023-04-10T11:39:09;4.93;;;4.43;;
16029;SDS011;34770;49.272;11.070;2023-04-10T11:41:39;4.95;;;4.35;;
16029;SDS011;34770;49.272;11.070;2023-04-10T11:44:07;5.00;;;4.45;;
16029;SDS011;34770;49.272;11.070;2023-04-10T11:46:38;5.03;;;4.53;;
16029;SDS011;34770;49.272;11.070;2023-04-10T11:49:09;5.75;;;5.15;;
16029;SDS011;34770;49.272;11.070;2023-04-10T11:51:35;4.90;;;4.40;;
16029;SDS011;34770;49.272;11.070;2023-04-10T11:56:38;5.68;;;4.82;;
16029;SDS011;34770;49.272;11.070;2023-04-10T11:59:05;4.68;;;4.20;;
16029;SDS011;34770;49.272;11.070;2023-04-10T12:01:33;4.60;;;4.10;;
16029;SDS011;34770;49.272;11.070;2023-04-10T12:03:59;5.03;;;4.53;;
16029;SDS011;34770;49.272;11.070;2023-04-10T12:06:25;5.22;;;4.38;;
16029;SDS011;34770;49.272;11.070;2023-04-10T12:08:52;5.20;;;4.70;;
16029;SDS011;34770;49.272;11.070;2023-04-10T12:11:18;6.10;;;5.50;;
16029;SDS011;34770;49.272;11.070;2023-04-10T12:13:45;5.60;;;4.57;;
16029;SDS011;34770;49.272;11.070;2023-04-10T12:16:12;5.55;;;5.00;;
16029;SDS011;34770;49.272;11.070;2023-04-10T12:18:38;5.07;;;4.47;;
16029;SDS011;34770;49.272;11.070;2023-04-10T12:21:04;5.55;;;5.05;;
16029;SDS011;34770;49.272;11.070;2023-04-10T12:23:30;4.75;;;4.32;;
16029;SDS011;34770;49.272;11.070;2023-04-10T12:26:10;5.25;;;4.40;;
16029;SDS011;34770;49.272;11.070;2023-04-10T12:28:36;8.55;;;4.28;;
16029;SDS011;34770;49.272;11.070;2023-04-10T12:31:02;6.88;;;5.10;;
16029;SDS011;34770;49.272;11.070;2023-04-10T12:33:28;4.93;;;4.38;;
16029;SDS011;34770;49.272;11.070;2023-04-10T12:35:54;6.57;;;4.93;;
16029;SDS011;34770;49.272;11.070;2023-04-10T12:41:20;4.15;;;3.83;;
16029;SDS011;34770;49.272;11.070;2023-04-10T12:44:04;4.13;;;3.70;;
16029;SDS011;34770;49.272;11.070;2023-04-10T12:46:37;4.80;;;4.00;;
16029;SDS011;34770;49.272;11.070;2023-04-10T12:49:13;4.75;;;4.32;;
16029;SDS011;34770;49.272;11.070;2023-04-10T12:51:41;4.97;;;4.32;;
16029;SDS011;34770;49.272;11.070;2023-04-10T12:54:07;4.10;;;3.63;;
16029;SDS011;34770;49.272;11.070;2023-04-10T12:56:42;5.18;;;4.65;;
16029;SDS011;34770;49.272;11.070;2023-04-10T12:59:09;4.45;;;4.05;;
16029;SDS011;34770;49.272;11.070;2023-04-10T13:01:38;4.35;;;3.95;;
16029;SDS011;34770;49.272;11.070;2023-04-10T13:04:04;4.65;;;4.25;;
16029;SDS011;34770;49.272;11.070;2023-04-10T13:06:30;4.75;;;3.67;;
16029;SDS011;34770;49.272;11.070;2023-04-10T13:08:55;4.13;;;3.72;;
16029;SDS011;34770;49.272;11.070;2023-04-10T13:11:21;4.43;;;3.85;;
16029;SDS011;34770;49.272;11.070;2023-04-10T13:13:47;4.68;;;3.97;;
16029;SDS011;34770;49.272;11.070;2023-04-10T13:16:13;4.63;;;3.92;;
16029;SDS011;34770;49.272;11.070;2023-04-10T13:18:39;4.38;;;3.30;;
16029;SDS011;34770;49.272;11.070;2023-04-10T13:21:05;3.85;;;3.53;;
16029;SDS011;34770;49.272;11.070;2023-04-10T13:23:30;3.63;;;3.33;;
16029;SDS011;34770;49.272;11.070;2023-04-10T13:25:56;3.53;;;3.17;;
16029;SDS011;34770;49.272;11.070;2023-04-10T13:28:23;4.43;;;3.35;;
16029;SDS011;34770;49.272;11.070;2023-04-10T13:30:48;3.78;;;3.45;;
16029;SDS011;34770;49.272;11.070;2023-04-10T13:33:14;4.10;;;3.70;;
16029;SDS011;34770;49.272;11.070;2023-04-10T13:35:40;3.75;;;3.28;;
16029;SDS011;34770;49.272;11.070;2023-04-10T13:38:05;4.05;;;3.50;;
16029;SDS011;34770;49.272;11.070;2023-04-10T13:40:31;3.67;;;3.38;;
16029;SDS011;34770;49.272;11.070;2023-04-10T13:42:57;4.00;;;3.60;;
16029;SDS011;34770;49.272;11.070;2023-04-10T13:45:23;3.75;;;3.40;;
16029;SDS011;34770;49.272;11.070;2023-04-10T13:47:48;4.88;;;4.38;;
16029;SDS011;34770;49.272;11.070;2023-04-10T13:50:14;3.92;;;3.58;;
16029;SDS011;34770;49.272;11.070;2023-04-10T13:52:40;4.20;;;3.78;;
16029;SDS011;34770;49.272;11.070;2023-04-10T13:55:05;4.15;;;3.60;;
16029;SDS011;34770;49.272;11.070;2023-04-10T13:57:31;4.15;;;3.75;;
16029;SDS011;34770;49.272;11.070;2023-04-10T13:59:58;4.53;;;4.00;;
16029;SDS011;34770;49.272;11.070;2023-04-10T14:02:23;4.20;;;3.80;;
16029;SDS011;34770;49.272;11.070;2023-04-10T14:04:49;3.97;;;3.55;;
16029;SDS011;34770;49.272;11.070;2023-04-10T14:07:15;4.07;;;3.72;;
16029;SDS011;34770;49.272;11.070;2023-04-10T14:09:41;3.83;;;3.42;;
16029;SDS011;34770;49.272;11.070;2023-04-10T14:12:06;3.72;;;3.20;;
16029;SDS011;34770;49.272;11.070;2023-04-10T14:14:32;4.03;;;3.60;;
16029;SDS011;34770;49.272;11.070;2023-04-10T14:16:57;4.63;;;3.55;;
16029;SDS011;34770;49.272;11.070;2023-04-10T14:19:23;3.55;;;3.25;;
16029;SDS011;34770;49.272;11.070;2023-04-10T14:21:48;4.20;;;3.80;;
16029;SDS011;34770;49.272;11.070;2023-04-10T14:24:14;4.90;;;4.15;;
16029;SDS011;34770;49.272;11.070;2023-04-10T14:26:39;4.38;;;3.90;;
16029;SDS011;34770;49.272;11.070;2023-04-10T14:29:05;3.55;;;3.22;;
16029;SDS011;34770;49.272;11.070;2023-04-10T14:31:32;4.13;;;3.72;;
16029;SDS011;34770;49.272;11.070;2023-04-10T14:33:58;4.03;;;3.63;;
16029;SDS011;34770;49.272;11.070;2023-04-10T14:36:23;4.13;;;3.55;;
16029;SDS011;34770;49.272;11.070;2023-04-10T14:38:49;4.55;;;4.15;;
16029;SDS011;34770;49.272;11.070;2023-04-10T14:41:15;4.63;;;3.80;;
16029;SDS011;34770;49.272;11.070;2023-04-10T14:43:41;4.32;;;3.92;;
16029;SDS011;34770;49.272;11.070;2023-04-10T14:46:07;4.05;;;3.65;;
16029;SDS011;34770;49.272;11.070;2023-04-10T14:48:32;4.18;;;3.78;;
16029;SDS011;34770;49.272;11.070;2023-04-10T14:50:58;4.45;;;4.05;;
16029;SDS011;34770;49.272;11.070;2023-04-10T14:53:24;4.20;;;3.40;;
16029;SDS011;34770;49.272;11.070;2023-04-10T14:55:50;3.28;;;2.97;;
16029;SDS011;34770;49.272;11.070;2023-04-10T14:58:15;3.67;;;3.35;;
16029;SDS011;34770;49.272;11.070;2023-04-10T15:00:41;4.22;;;3.58;;
16029;SDS011;34770;49.272;11.070;2023-04-10T15:03:07;4.25;;;3.85;;
16029;SDS011;34770;49.272;11.070;2023-04-10T15:05:33;4.35;;;3.88;;
16029;SDS011;34770;49.272;11.070;2023-04-10T15:07:58;3.78;;;3.42;;